createdAt,value
2019-04-11T00:02:26.905Z,4.86
2019-04-11T00:07:30.122Z,4.88
2019-04-11T00:12:32.655Z,4.73
2019-04-11T00:17:36.231Z,5.07
2019-04-11T00:22:38.538Z,4.79
2019-04-11T00:27:43.449Z,4.93
2019-04-11T00:32:47.604Z,5.14
2019-04-11T00:37:49.621Z,4.57
2019-04-11T00:42:52.979Z,4.73
2019-04-11T00:47:55.363Z,4.63
2019-04-11T00:52:58.015Z,4.44
2019-04-11T00:58:01.295Z,4.94
2019-04-11T01:03:04.928Z,4.45
2019-04-11T01:08:07.879Z,4.59
2019-04-11T01:13:09.894Z,4.74
2019-04-11T01:18:11.953Z,4.77
2019-04-11T01:23:15.160Z,4.47
2019-04-11T01:28:20.712Z,4.46
2019-04-11T01:33:24.052Z,4.35
2019-04-11T01:38:28.270Z,4.55
2019-04-11T01:43:30.739Z,4.86
2019-04-11T01:48:41.944Z,4.56
2019-04-11T01:53:44.741Z,4.33
2019-04-11T01:58:49.444Z,4.50
2019-04-11T02:04:14.043Z,4.32
2019-04-11T02:09:16.831Z,4.58
2019-04-11T02:14:22.651Z,4.41
2019-04-11T02:19:29.860Z,4.20
2019-04-11T02:24:56.315Z,4.45
2019-04-11T02:29:59.011Z,4.54
2019-04-11T02:35:05.140Z,4.34
2019-04-11T02:40:11.253Z,3.97
2019-04-11T02:45:27.129Z,4.08
2019-04-11T02:50:19.747Z,4.11
2019-04-11T02:55:25.324Z,3.89
2019-04-11T03:00:29.167Z,3.70
2019-04-11T03:05:34.453Z,3.78
2019-04-11T03:10:37.800Z,4.12
2019-04-11T03:15:59.509Z,3.94
2019-04-11T03:20:56.203Z,3.89
2019-04-11T03:25:54.409Z,4.10
2019-04-11T03:31:30.402Z,3.58
2019-04-11T03:36:54.156Z,3.44
2019-04-11T03:41:23.444Z,3.67
2019-04-11T03:46:33.908Z,4.05
2019-04-11T03:51:20.983Z,3.57
2019-04-11T03:56:24.496Z,3.70
2019-04-11T04:01:27.321Z,3.89
2019-04-11T04:06:31.038Z,3.90
2019-04-11T04:11:36.048Z,3.79
2019-04-11T04:17:01.608Z,3.70
2019-04-11T04:22:24.964Z,3.76
2019-04-11T04:27:28.117Z,3.35
2019-04-11T04:32:33.853Z,3.24
2019-04-11T04:37:36.659Z,3.62
2019-04-11T04:42:45.832Z,3.46
2019-04-11T04:47:51.456Z,3.68
2019-04-11T04:52:48.979Z,3.22
2019-04-11T04:57:53.272Z,3.24
2019-04-11T05:02:59.869Z,3.46
2019-04-11T05:08:02.997Z,3.74
2019-04-11T05:13:05.801Z,3.11
2019-04-11T05:18:08.908Z,3.24
2019-04-11T05:23:11.989Z,3.56
2019-04-11T05:28:14.072Z,3.74
2019-04-11T05:33:16.172Z,3.47
2019-04-11T05:38:18.896Z,3.68
2019-04-11T05:43:28.064Z,4.04
2019-04-11T05:48:36.791Z,4.08
2019-04-11T05:53:39.083Z,4.15
2019-04-11T05:58:44.294Z,3.76
2019-04-11T06:03:49.230Z,4.82
2019-04-11T06:08:54.234Z,4.84
2019-04-11T06:14:11.154Z,4.74
2019-04-11T06:19:33.466Z,4.54
2019-04-11T06:24:42.707Z,5.98
2019-04-11T06:30:05.515Z,5.04
2019-04-11T06:35:16.281Z,4.74
2019-04-11T06:40:24.895Z,4.96
2019-04-11T06:46:03.018Z,5.51
2019-04-11T06:51:30.609Z,5.41
2019-04-11T06:56:41.302Z,5.47
2019-04-11T07:01:45.405Z,5.63
2019-04-11T07:06:51.937Z,5.37
2019-04-11T07:11:59.306Z,6.17
2019-04-11T07:17:21.081Z,6.38
2019-04-11T07:22:41.559Z,6.33
2019-04-11T07:27:57.239Z,6.68
2019-04-11T07:33:13.758Z,6.65
2019-04-11T07:38:22.789Z,6.84
2019-04-11T07:43:35.439Z,6.49
2019-04-11T07:48:40.327Z,6.80
2019-04-11T07:53:45.990Z,7.08
2019-04-11T07:58:51.203Z,6.80
2019-04-11T08:04:15.878Z,7.39
2019-04-11T08:09:39.534Z,7.79
2019-04-11T08:15:04.833Z,8.02
2019-04-11T08:20:25.713Z,7.74
2019-04-11T08:25:59.925Z,8.07
2019-04-11T08:31:28.625Z,8.02
2019-04-11T08:36:49.037Z,8.51
2019-04-11T08:42:10.107Z,8.18
2019-04-11T08:47:14.168Z,8.34
2019-04-11T08:52:25.461Z,8.76
2019-04-11T08:57:40.964Z,8.45
2019-04-11T09:02:47.838Z,8.63
2019-04-11T09:08:10.010Z,8.63
2019-04-11T09:13:35.526Z,9.15
2019-04-11T09:18:38.475Z,9.03
2019-04-11T09:23:46.071Z,9.05
2019-04-11T09:28:51.566Z,9.34
2019-04-11T09:34:25.943Z,9.40
2019-04-11T09:39:59.645Z,8.84
2019-04-11T09:45:41.652Z,9.11
2019-04-11T09:51:07.533Z,9.58
2019-04-11T09:56:29.169Z,9.22
2019-04-11T10:02:00.301Z,9.32
2019-04-11T10:07:25.808Z,9.68
2019-04-11T10:12:46.537Z,9.67
2019-04-11T10:18:20.120Z,9.52
2019-04-11T10:23:25.005Z,9.92
2019-04-11T10:28:48.085Z,10.19
2019-04-11T10:34:09.753Z,10.48
2019-04-11T10:39:46.699Z,10.38
2019-04-11T10:45:18.463Z,10.45
2019-04-11T10:50:46.640Z,10.64
2019-04-11T10:56:08.876Z,10.42
2019-04-11T11:01:29.395Z,10.76
2019-04-11T11:06:31.687Z,10.37
2019-04-11T11:11:38.680Z,10.73
2019-04-11T11:16:50.730Z,10.53
2019-04-11T11:22:10.522Z,10.23
2019-04-11T11:27:13.796Z,10.90
2019-04-11T11:32:29.369Z,11.32
2019-04-11T11:38:03.903Z,11.55
2019-04-11T11:43:27.673Z,11.46
2019-04-11T11:48:36.612Z,11.46
2019-04-11T11:53:59.385Z,12.43
2019-04-11T11:59:23.493Z,12.71
2019-04-11T12:04:44.319Z,12.30
2019-04-11T12:10:04.424Z,12.61
2019-04-11T12:15:30.257Z,12.01
2019-04-11T12:20:41.360Z,12.27
2019-04-11T12:25:43.164Z,12.33
2019-04-11T12:30:48.198Z,11.89
2019-04-11T12:36:03.551Z,11.69
2019-04-11T12:41:17.203Z,11.60
2019-04-11T12:46:39.353Z,11.17
2019-04-11T12:51:59.842Z,11.31
2019-04-11T12:57:20.283Z,11.49
2019-04-11T13:02:41.903Z,11.05
2019-04-11T13:08:02.170Z,11.32
2019-04-11T13:13:24.422Z,11.85
2019-04-11T13:18:47.462Z,12.33
2019-04-11T13:24:09.235Z,11.73
2019-04-11T13:29:29.436Z,11.28
2019-04-11T13:34:32.381Z,12.25
2019-04-11T13:39:34.501Z,12.20
2019-04-11T13:44:38.584Z,12.20
2019-04-11T13:49:43.313Z,11.46
2019-04-11T13:55:07.917Z,11.46
2019-04-11T14:00:30.247Z,11.66
2019-04-11T14:05:36.555Z,11.41
2019-04-11T14:10:38.743Z,12.06
2019-04-11T14:15:42.497Z,12.64
2019-04-11T14:20:47.519Z,12.03
2019-04-11T14:26:00.747Z,12.19
2019-04-11T14:31:24.443Z,11.72
2019-04-11T14:42:15.919Z,11.97
2019-04-11T14:47:40.338Z,11.97
2019-04-11T14:52:50.956Z,11.75
2019-04-11T14:58:03.010Z,12.75
2019-04-11T15:03:33.822Z,12.75
2019-04-11T15:09:00.653Z,11.65
2019-04-11T15:14:12.261Z,11.47
2019-04-11T15:19:14.454Z,12.05
2019-04-11T15:24:17.656Z,11.65
2019-04-11T15:29:37.544Z,11.80
2019-04-11T15:34:53.915Z,12.03
2019-04-11T15:40:16.985Z,12.03
2019-04-11T15:45:30.432Z,12.14
2019-04-11T15:51:06.588Z,12.35
2019-04-11T15:56:24.497Z,12.35
2019-04-11T16:01:42.293Z,12.06
2019-04-11T16:07:08.155Z,12.01
2019-04-11T16:12:25.342Z,12.30
2019-04-11T16:17:44.715Z,12.30
2019-04-11T16:23:09.837Z,12.31
2019-04-11T16:28:43.321Z,12.24
2019-04-11T16:33:51.073Z,12.00
2019-04-11T16:39:13.407Z,11.57
2019-04-11T16:44:24.834Z,11.60
2019-04-11T16:49:25.970Z,11.47
2019-04-11T16:54:28.844Z,10.85
2019-04-11T16:59:35.280Z,10.83
2019-04-11T17:04:40.764Z,10.96
2019-04-11T17:09:46.856Z,10.79
2019-04-11T17:14:50.166Z,10.90
2019-04-11T17:19:52.263Z,10.78
2019-04-11T17:24:54.792Z,10.82
2019-04-11T17:29:56.920Z,10.63
2019-04-11T17:35:01.351Z,10.63
2019-04-11T17:40:06.988Z,10.70
2019-04-11T17:45:09.865Z,10.58
2019-04-11T17:50:12.780Z,10.44
2019-04-11T17:55:23.636Z,10.40
2019-04-11T18:00:29.934Z,10.42
2019-04-11T18:05:32.873Z,10.63
2019-04-11T18:10:34.878Z,10.72
2019-04-11T18:15:40.520Z,10.75
2019-04-11T18:20:42.579Z,10.57
2019-04-11T18:25:44.622Z,10.52
2019-04-11T18:30:46.651Z,10.55
2019-04-11T18:35:48.747Z,10.46
2019-04-11T18:40:50.798Z,10.53
2019-04-11T18:45:52.990Z,10.47
2019-04-11T18:50:55.141Z,10.46
2019-04-11T18:55:57.307Z,10.45
2019-04-11T19:01:04.358Z,10.39
2019-04-11T19:06:07.820Z,10.31
2019-04-11T19:11:09.845Z,10.02
2019-04-11T19:16:13.808Z,9.80
2019-04-11T19:21:21.028Z,9.86
2019-04-11T19:26:22.967Z,9.91
2019-04-11T19:31:28.174Z,9.74
2019-04-11T19:36:30.015Z,9.33
2019-04-11T19:41:32.016Z,9.02
2019-04-11T19:46:37.185Z,8.71
2019-04-11T19:51:44.674Z,8.72
2019-04-11T19:57:06.559Z,8.77
2019-04-11T20:02:08.609Z,8.76
2019-04-11T20:07:11.364Z,8.59
2019-04-11T20:12:16.139Z,8.39
2019-04-11T20:17:19.294Z,8.53
2019-04-11T20:22:22.075Z,8.38
2019-04-11T20:27:24.311Z,8.07
2019-04-11T20:32:30.560Z,8.00
2019-04-11T20:37:39.209Z,7.94
2019-04-11T20:42:42.813Z,8.10
2019-04-11T20:47:46.764Z,8.02
2019-04-11T20:52:48.844Z,8.05
2019-04-11T20:57:50.851Z,8.18
2019-04-11T21:02:52.904Z,8.17
2019-04-11T21:07:54.891Z,8.08
2019-04-11T21:12:57.535Z,8.29
2019-04-11T21:17:59.781Z,8.17
2019-04-11T21:23:02.068Z,8.32
2019-04-11T21:28:04.076Z,8.50
2019-04-11T21:33:08.304Z,8.38
2019-04-11T21:38:10.328Z,8.17
2019-04-11T21:43:12.781Z,8.27
2019-04-11T21:48:14.912Z,8.11
2019-04-11T21:53:16.977Z,8.43
2019-04-11T21:58:20.105Z,8.29
2019-04-11T22:03:24.230Z,8.24
2019-04-11T22:08:26.866Z,8.31
2019-04-11T22:13:29.349Z,8.26
2019-04-11T22:18:31.393Z,8.27
2019-04-11T22:23:33.458Z,8.34
2019-04-11T22:28:35.702Z,8.33
2019-04-11T22:33:47.705Z,8.39
2019-04-11T22:38:54.829Z,8.00
2019-04-11T22:43:57.480Z,8.45
2019-04-11T22:49:00.769Z,8.05
2019-04-11T22:54:03.014Z,8.01
2019-04-11T22:59:13.561Z,7.94
2019-04-11T23:04:16.624Z,7.81
2019-04-11T23:09:20.117Z,7.99
2019-04-11T23:14:25.683Z,8.15
2019-04-11T23:19:29.491Z,8.16
2019-04-11T23:24:31.608Z,8.03
2019-04-11T23:29:33.600Z,7.64
2019-04-11T23:34:35.894Z,7.71
2019-04-11T23:39:39.816Z,7.60
2019-04-11T23:44:43.941Z,7.80
2019-04-11T23:49:55.070Z,7.69
2019-04-11T23:55:05.013Z,7.92
